Time;durP1;ratioP1;P1;durP2;ratioP2;P2;SDS_P1;SDS_P2;PMS_P1;PMS_P2;Temp;Humidity;BMP_temperature;BMP_pressure;BME280_temperature;BME280_humidity;BME280_pressure;Samples;Min_cycle;Max_cycle;Signal;HPM_P1;HPM_P2
2022/09/18 00:01:36;;;;;;;5.77;1.87;;;;;;;;;;5032443;28;20197;-45
2022/09/18 00:04:03;;;;;;;10.17;2.10;;;;;;;;;;5030832;28;20732;-45
2022/09/18 00:06:30;;;;;;;7.47;2.23;;;;;;;;;;5032290;28;20274;-45
2022/09/18 00:08:57;;;;;;;8.90;2.37;;;;;;;;;;5032096;28;20228;-44
2022/09/18 00:11:24;;;;;;;6.87;1.83;;;;;;;;;;5032424;28;20208;-45
2022/09/18 00:13:52;;;;;;;8.10;2.07;;;;;;;;;;5032127;28;20240;-45
2022/09/18 00:16:19;;;;;;;4.97;1.70;;;;;;;;;;5030457;28;20205;-44
2022/09/18 00:18:45;;;;;;;9.03;1.93;;;;;;;;;;5031608;28;20252;-45
2022/09/18 00:21:12;;;;;;;8.80;2.60;;;;;;;;;;5032187;28;20201;-45
2022/09/18 00:23:38;;;;;;;5.47;1.93;;;;;;;;;;5031808;28;20757;-46
2022/09/18 00:26:05;;;;;;;4.40;1.90;;;;;;;;;;5031924;28;20282;-46
2022/09/18 00:28:31;;;;;;;6.40;2.13;;;;;;;;;;5031953;28;20607;-46
2022/09/18 00:31:03;;;;;;;7.80;2.43;;;;;;;;;;5031902;28;20233;-46
2022/09/18 00:33:29;;;;;;;9.33;2.30;;;;;;;;;;5031897;28;20659;-46
2022/09/18 00:35:59;;;;;;;8.83;2.17;;;;;;;;;;5031017;28;20613;-46
2022/09/18 00:38:25;;;;;;;4.33;1.80;;;;;;;;;;5031676;28;20211;-46
2022/09/18 00:40:51;;;;;;;6.60;2.00;;;;;;;;;;5031439;28;20189;-46
2022/09/18 00:43:18;;;;;;;7.60;2.00;;;;;;;;;;5031871;28;20696;-46
2022/09/18 00:45:53;;;;;;;7.80;2.17;;;;;;;;;;5031813;28;20353;-46
2022/09/18 00:48:21;;;;;;;5.60;1.83;;;;;;;;;;5032013;28;20196;-46
2022/09/18 00:50:47;;;;;;;5.90;2.13;;;;;;;;;;5031451;28;20193;-46
2022/09/18 00:53:13;;;;;;;7.60;2.17;;;;;;;;;;5031407;28;20658;-46
2022/09/18 00:55:41;;;;;;;9.23;2.27;;;;;;;;;;5031280;28;20197;-46
2022/09/18 00:58:07;;;;;;;7.03;2.20;;;;;;;;;;5031815;28;20215;-46
2022/09/18 01:00:35;;;;;;;8.97;2.17;;;;;;;;;;5031529;28;20201;-46
2022/09/18 01:03:01;;;;;;;6.43;1.90;;;;;;;;;;5031513;28;20197;-46
2022/09/18 01:05:33;;;;;;;7.33;2.00;;;;;;;;;;5031550;28;20196;-46
2022/09/18 01:08:06;;;;;;;4.33;2.00;;;;;;;;;;5031175;28;20243;-50
2022/09/18 01:10:38;;;;;;;4.43;2.03;;;;;;;;;;5030620;28;20630;-46
2022/09/18 01:13:08;;;;;;;6.90;2.10;;;;;;;;;;5031687;28;20201;-46
2022/09/18 01:15:40;;;;;;;8.10;2.10;;;;;;;;;;5034225;28;20209;-46
2022/09/18 01:18:10;;;;;;;5.57;1.90;;;;;;;;;;5037369;28;20292;-47
2022/09/18 01:20:52;;;;;;;7.07;1.87;;;;;;;;;;5037739;28;20199;-47
2022/09/18 01:23:25;;;;;;;6.50;2.23;;;;;;;;;;5037947;28;20302;-46
2022/09/18 01:26:01;;;;;;;6.70;2.00;;;;;;;;;;5037876;28;20227;-46
2022/09/18 01:28:32;;;;;;;6.97;1.97;;;;;;;;;;5037720;28;20231;-46
2022/09/18 01:31:01;;;;;;;5.83;2.00;;;;;;;;;;5037471;28;20244;-46
2022/09/18 01:33:30;;;;;;;4.93;2.10;;;;;;;;;;5037397;28;20282;-46
2022/09/18 01:35:58;;;;;;;4.07;1.80;;;;;;;;;;5037749;28;20670;-46
2022/09/18 01:38:28;;;;;;;7.53;2.03;;;;;;;;;;5037807;28;20655;-46
2022/09/18 01:40:58;;;;;;;6.97;1.90;;;;;;;;;;5037668;28;20565;-47
2022/09/18 01:43:26;;;;;;;7.67;2.30;;;;;;;;;;5037685;28;20659;-46
2022/09/18 01:45:55;;;;;;;5.83;2.33;;;;;;;;;;5037704;28;20228;-46
2022/09/18 01:48:24;;;;;;;7.03;2.00;;;;;;;;;;5037764;28;20736;-47
2022/09/18 01:50:53;;;;;;;8.30;1.90;;;;;;;;;;5037805;28;20628;-46
2022/09/18 01:53:21;;;;;;;9.03;2.57;;;;;;;;;;5037698;28;20295;-46
2022/09/18 01:55:49;;;;;;;4.67;1.60;;;;;;;;;;5037518;28;20200;-46
2022/09/18 01:58:17;;;;;;;2.83;1.57;;;;;;;;;;5037671;28;20255;-46
2022/09/18 02:00:46;;;;;;;9.27;2.30;;;;;;;;;;5019879;28;20250;-47
2022/09/18 02:03:15;;;;;;;8.53;1.60;;;;;;;;;;5037605;28;20185;-46
2022/09/18 02:05:43;;;;;;;5.93;2.20;;;;;;;;;;5037470;28;20204;-47
2022/09/18 02:08:14;;;;;;;10.33;2.50;;;;;;;;;;5037463;28;20223;-46
2022/09/18 02:10:42;;;;;;;5.17;2.07;;;;;;;;;;5037564;28;20631;-46
2022/09/18 02:13:09;;;;;;;5.37;1.80;;;;;;;;;;5037460;28;20560;-46
2022/09/18 02:15:38;;;;;;;6.53;1.80;;;;;;;;;;5037554;28;20207;-46
2022/09/18 02:18:06;;;;;;;7.53;1.70;;;;;;;;;;5037242;28;20235;-46
2022/09/18 02:20:34;;;;;;;7.97;2.10;;;;;;;;;;5037478;28;20201;-46
2022/09/18 02:23:03;;;;;;;6.57;1.80;;;;;;;;;;5037248;28;20201;-46
2022/09/18 02:25:30;;;;;;;6.93;1.70;;;;;;;;;;5037439;28;20201;-46
2022/09/18 02:27:57;;;;;;;6.97;1.90;;;;;;;;;;5033463;28;20924;-46
2022/09/18 02:30:23;;;;;;;6.17;2.00;;;;;;;;;;5031025;28;20288;-46
2022/09/18 02:32:53;;;;;;;5.63;1.63;;;;;;;;;;5034177;28;20245;-47
2022/09/18 02:35:19;;;;;;;3.83;1.47;;;;;;;;;;5034203;28;20189;-46
2022/09/18 02:37:52;;;;;;;7.00;1.70;;;;;;;;;;5034057;28;20189;-46
2022/09/18 02:40:27;;;;;;;8.53;1.83;;;;;;;;;;5034169;28;20597;-46
2022/09/18 02:43:00;;;;;;;4.47;1.60;;;;;;;;;;5033792;28;20200;-46
2022/09/18 02:45:31;;;;;;;5.50;2.03;;;;;;;;;;5034038;28;20232;-46
2022/09/18 02:48:02;;;;;;;5.33;1.90;;;;;;;;;;5033799;28;20239;-46
2022/09/18 02:50:30;;;;;;;4.77;1.77;;;;;;;;;;5033726;28;20280;-46
2022/09/18 02:53:01;;;;;;;5.17;1.93;;;;;;;;;;5032801;28;20192;-46
2022/09/18 02:55:28;;;;;;;7.57;2.40;;;;;;;;;;5033941;28;20209;-46
2022/09/18 02:57:56;;;;;;;4.83;1.80;;;;;;;;;;5033630;28;20643;-46
2022/09/18 03:00:22;;;;;;;6.17;1.90;;;;;;;;;;5033682;28;20679;-46
2022/09/18 03:02:49;;;;;;;5.40;1.70;;;;;;;;;;5033709;28;20288;-46
2022/09/18 03:05:15;;;;;;;5.27;1.60;;;;;;;;;;5033608;28;20255;-46
2022/09/18 03:07:41;;;;;;;6.07;1.60;;;;;;;;;;5033170;28;20707;-46
2022/09/18 03:10:10;;;;;;;5.03;1.70;;;;;;;;;;5033534;28;20318;-46
2022/09/18 03:12:36;;;;;;;7.07;2.03;;;;;;;;;;5033435;28;20663;-46
2022/09/18 03:15:02;;;;;;;9.70;2.00;;;;;;;;;;5031396;28;20200;-46
2022/09/18 03:17:28;;;;;;;7.77;1.70;;;;;;;;;;5033565;28;20199;-46
2022/09/18 03:19:54;;;;;;;9.33;2.00;;;;;;;;;;5032959;28;20219;-46
2022/09/18 03:22:20;;;;;;;8.53;1.90;;;;;;;;;;5033282;28;20535;-47
2022/09/18 03:24:46;;;;;;;4.57;1.90;;;;;;;;;;5033250;28;20300;-46
2022/09/18 03:27:15;;;;;;;6.07;1.83;;;;;;;;;;5033255;28;20311;-47
2022/09/18 03:29:41;;;;;;;7.13;2.10;;;;;;;;;;5032822;28;20205;-47
2022/09/18 03:32:07;;;;;;;5.13;1.77;;;;;;;;;;5033095;28;20209;-46
2022/09/18 03:34:34;;;;;;;7.87;2.00;;;;;;;;;;5033110;28;20197;-46
2022/09/18 03:37:00;;;;;;;6.67;2.13;;;;;;;;;;5032925;28;20254;-46
2022/09/18 03:39:26;;;;;;;5.37;1.90;;;;;;;;;;5032807;28;20715;-46
2022/09/18 03:41:51;;;;;;;5.40;2.00;;;;;;;;;;5032869;28;20280;-47
2022/09/18 03:44:19;;;;;;;7.53;2.13;;;;;;;;;;5032510;28;20889;-46
2022/09/18 03:46:45;;;;;;;6.10;1.50;;;;;;;;;;5032140;28;20228;-46
2022/09/18 03:49:11;;;;;;;5.20;1.90;;;;;;;;;;5032800;28;20207;-46
2022/09/18 03:51:37;;;;;;;5.20;2.00;;;;;;;;;;5032843;28;20638;-46
2022/09/18 03:54:03;;;;;;;4.33;1.80;;;;;;;;;;5032551;28;20193;-47
2022/09/18 03:56:29;;;;;;;10.13;2.10;;;;;;;;;;5032693;28;20219;-47
2022/09/18 03:58:55;;;;;;;5.47;1.70;;;;;;;;;;5032422;28;20710;-46
2022/09/18 04:01:22;;;;;;;3.53;2.10;;;;;;;;;;5032299;28;20205;-46
2022/09/18 04:03:49;;;;;;;7.10;1.87;;;;;;;;;;5032130;28;20220;-46
2022/09/18 04:06:15;;;;;;;10.10;2.93;;;;;;;;;;5032435;28;20264;-46
2022/09/18 04:08:41;;;;;;;5.67;1.70;;;;;;;;;;5032199;28;20248;-46
2022/09/18 04:11:07;;;;;;;6.03;2.37;;;;;;;;;;5032648;28;20224;-46
2022/09/18 04:13:33;;;;;;;4.20;1.80;;;;;;;;;;5032350;28;20200;-46
2022/09/18 04:15:59;;;;;;;5.63;1.90;;;;;;;;;;5031746;28;20738;-46
2022/09/18 04:18:27;;;;;;;7.30;2.13;;;;;;;;;;5031614;28;20674;-46
2022/09/18 04:20:53;;;;;;;8.90;2.77;;;;;;;;;;5029528;28;20200;-46
2022/09/18 04:23:19;;;;;;;3.00;1.73;;;;;;;;;;5031109;28;20292;-46
2022/09/18 04:25:45;;;;;;;6.00;1.80;;;;;;;;;;5032111;28;20208;-47
2022/09/18 04:28:11;;;;;;;8.17;2.00;;;;;;;;;;5031998;28;20200;-46
2022/09/18 04:30:37;;;;;;;7.07;1.93;;;;;;;;;;5031722;28;20232;-46
2022/09/18 04:33:03;;;;;;;8.47;2.23;;;;;;;;;;5031792;28;20738;-46
2022/09/18 04:35:31;;;;;;;4.67;1.90;;;;;;;;;;5031894;28;20199;-46
2022/09/18 04:37:57;;;;;;;5.27;2.17;;;;;;;;;;5031592;28;20551;-46
2022/09/18 04:40:23;;;;;;;5.50;1.53;;;;;;;;;;5031077;28;20201;-46
2022/09/18 04:42:49;;;;;;;8.60;2.10;;;;;;;;;;5031642;28;20283;-46
2022/09/18 04:45:15;;;;;;;4.67;1.70;;;;;;;;;;5031294;28;20295;-46
2022/09/18 04:47:41;;;;;;;4.97;1.70;;;;;;;;;;5031643;28;20221;-46
2022/09/18 04:50:07;;;;;;;8.83;1.90;;;;;;;;;;5031032;28;20231;-46
2022/09/18 04:52:35;;;;;;;6.33;1.93;;;;;;;;;;5031561;28;20211;-46
2022/09/18 04:55:01;;;;;;;6.20;2.10;;;;;;;;;;5031342;28;20205;-46
2022/09/18 04:57:27;;;;;;;4.33;2.03;;;;;;;;;;5031699;28;20197;-46
2022/09/18 04:59:53;;;;;;;5.33;1.60;;;;;;;;;;5031423;28;20197;-46
2022/09/18 05:02:19;;;;;;;5.60;1.70;;;;;;;;;;5031605;28;20228;-46
2022/09/18 05:04:45;;;;;;;8.30;2.20;;;;;;;;;;5031352;28;20193;-46
2022/09/18 05:07:11;;;;;;;5.43;1.80;;;;;;;;;;5031225;28;20228;-46
2022/09/18 05:09:38;;;;;;;8.10;2.50;;;;;;;;;;5031609;28;20667;-46
2022/09/18 05:12:05;;;;;;;7.93;2.23;;;;;;;;;;5031270;28;20303;-46
2022/09/18 05:14:31;;;;;;;10.63;2.20;;;;;;;;;;5031410;28;20207;-46
2022/09/18 05:16:58;;;;;;;4.37;1.93;;;;;;;;;;5031333;28;20201;-46
2022/09/18 05:19:23;;;;;;;5.83;2.30;;;;;;;;;;5031332;28;20260;-46
2022/09/18 05:21:50;;;;;;;12.50;2.53;;;;;;;;;;5031146;28;20196;-46
2022/09/18 05:24:16;;;;;;;4.37;1.87;;;;;;;;;;5031384;28;20203;-46
2022/09/18 05:26:44;;;;;;;6.13;2.13;;;;;;;;;;5031346;28;20221;-46
2022/09/18 05:29:10;;;;;;;8.33;1.90;;;;;;;;;;5030981;28;20205;-46
2022/09/18 05:31:36;;;;;;;4.77;1.70;;;;;;;;;;5031220;28;20237;-46
2022/09/18 05:34:02;;;;;;;10.00;2.33;;;;;;;;;;5031049;28;20279;-46
2022/09/18 05:36:28;;;;;;;6.00;2.13;;;;;;;;;;5031397;28;20240;-46
2022/09/18 05:38:54;;;;;;;7.23;2.13;;;;;;;;;;5030940;28;20200;-46
2022/09/18 05:41:20;;;;;;;7.17;2.07;;;;;;;;;;5031284;28;20207;-46
2022/09/18 05:43:47;;;;;;;8.70;2.13;;;;;;;;;;5031059;28;20546;-46
2022/09/18 05:46:14;;;;;;;4.30;1.90;;;;;;;;;;5030843;28;20284;-46
2022/09/18 05:48:40;;;;;;;10.00;2.23;;;;;;;;;;5030782;28;20246;-46
2022/09/18 05:51:07;;;;;;;8.40;2.17;;;;;;;;;;5031110;28;20197;-46
2022/09/18 05:53:33;;;;;;;7.63;2.17;;;;;;;;;;5031034;28;20291;-46
2022/09/18 05:55:59;;;;;;;5.23;2.43;;;;;;;;;;5030880;28;20205;-46
2022/09/18 05:58:25;;;;;;;4.90;1.73;;;;;;;;;;5030774;28;20201;-46
2022/09/18 06:00:55;;;;;;;5.10;1.90;;;;;;;;;;5030439;28;20211;-46
2022/09/18 06:03:21;;;;;;;4.83;1.87;;;;;;;;;;5033572;28;20212;-46
2022/09/18 06:05:51;;;;;;;7.90;2.03;;;;;;;;;;5034296;28;20189;-46
2022/09/18 06:08:17;;;;;;;5.23;2.30;;;;;;;;;;5034530;28;20694;-47
2022/09/18 06:10:43;;;;;;;7.43;2.00;;;;;;;;;;5034511;28;20564;-46
2022/09/18 06:13:11;;;;;;;3.63;1.70;;;;;;;;;;5034404;28;20272;-46
2022/09/18 06:15:37;;;;;;;2.90;1.73;;;;;;;;;;5034459;28;20201;-46
2022/09/18 06:18:07;;;;;;;7.37;2.27;;;;;;;;;;5033835;28;20203;-46
2022/09/18 06:20:33;;;;;;;5.87;1.93;;;;;;;;;;5031793;28;20584;-46
2022/09/18 06:23:00;;;;;;;8.10;1.90;;;;;;;;;;5034183;28;20197;-46
2022/09/18 06:25:26;;;;;;;6.33;2.10;;;;;;;;;;5034210;28;20201;-46
2022/09/18 06:27:57;;;;;;;4.73;1.80;;;;;;;;;;5034131;28;20223;-46
2022/09/18 06:30:23;;;;;;;5.30;2.00;;;;;;;;;;5034173;28;20241;-46
2022/09/18 06:32:49;;;;;;;7.33;2.20;;;;;;;;;;5034273;28;20185;-46
2022/09/18 06:35:17;;;;;;;9.20;2.30;;;;;;;;;;5034026;28;20745;-46
2022/09/18 06:37:43;;;;;;;6.50;2.37;;;;;;;;;;5034154;28;20194;-46
2022/09/18 06:40:09;;;;;;;7.57;2.13;;;;;;;;;;5033551;28;20291;-46
2022/09/18 06:42:35;;;;;;;3.73;1.53;;;;;;;;;;5034244;28;20205;-46
2022/09/18 06:45:01;;;;;;;9.90;2.47;;;;;;;;;;5033643;28;20197;-46
2022/09/18 06:47:27;;;;;;;6.37;1.90;;;;;;;;;;5033298;28;20224;-46
2022/09/18 06:49:53;;;;;;;6.40;1.90;;;;;;;;;;5033540;28;20197;-46
2022/09/18 06:52:20;;;;;;;8.30;1.90;;;;;;;;;;5033561;28;20197;-46
2022/09/18 06:54:46;;;;;;;5.60;1.83;;;;;;;;;;5033422;28;20197;-46
2022/09/18 06:57:12;;;;;;;4.93;2.17;;;;;;;;;;5033577;28;20747;-46
2022/09/18 06:59:38;;;;;;;9.33;2.03;;;;;;;;;;5033567;28;20197;-46
2022/09/18 07:02:04;;;;;;;7.67;1.93;;;;;;;;;;5033490;28;20303;-46
2022/09/18 07:04:31;;;;;;;6.03;1.53;;;;;;;;;;5033524;28;20927;-46
2022/09/18 07:06:57;;;;;;;6.53;2.57;;;;;;;;;;5033372;28;20758;-46
2022/09/18 07:09:25;;;;;;;6.33;2.00;;;;;;;;;;5032359;28;20276;-46
2022/09/18 07:11:51;;;;;;;6.33;1.80;;;;;;;;;;5032868;28;20209;-46
2022/09/18 07:14:17;;;;;;;6.57;2.13;;;;;;;;;;5014980;28;20766;-46
2022/09/18 07:16:43;;;;;;;9.97;1.90;;;;;;;;;;5033585;28;20228;-46
2022/09/18 07:19:09;;;;;;;6.00;2.00;;;;;;;;;;5033014;28;20654;-46
2022/09/18 07:21:37;;;;;;;6.13;1.63;;;;;;;;;;5032982;28;20216;-46
2022/09/18 07:24:03;;;;;;;4.33;1.90;;;;;;;;;;5033322;28;20204;-46
2022/09/18 07:26:30;;;;;;;8.80;2.67;;;;;;;;;;5033050;28;20228;-46
2022/09/18 07:28:56;;;;;;;5.30;1.90;;;;;;;;;;5032446;28;20209;-46
2022/09/18 07:31:22;;;;;;;8.03;2.30;;;;;;;;;;5032930;28;20243;-46
2022/09/18 07:33:52;;;;;;;6.20;2.40;;;;;;;;;;5032941;28;20277;-46
2022/09/18 07:36:18;;;;;;;6.03;1.90;;;;;;;;;;5033002;28;20561;-46
2022/09/18 07:38:44;;;;;;;6.83;1.93;;;;;;;;;;5032922;28;20223;-46
2022/09/18 07:41:10;;;;;;;7.97;1.93;;;;;;;;;;5032761;28;20681;-46
2022/09/18 07:43:37;;;;;;;6.23;1.70;;;;;;;;;;5032694;28;20212;-46
2022/09/18 07:46:03;;;;;;;5.60;1.77;;;;;;;;;;5032865;28;20197;-47
2022/09/18 07:48:29;;;;;;;6.57;1.77;;;;;;;;;;5032984;28;20197;-46
2022/09/18 07:50:57;;;;;;;7.37;1.80;;;;;;;;;;5032320;28;20196;-46
2022/09/18 07:53:23;;;;;;;4.70;1.70;;;;;;;;;;5032971;28;20252;-46
2022/09/18 07:55:49;;;;;;;4.93;1.80;;;;;;;;;;5032318;28;20244;-46
2022/09/18 07:58:15;;;;;;;4.37;1.60;;;;;;;;;;5032523;28;20201;-46
2022/09/18 08:00:42;;;;;;;4.97;1.87;;;;;;;;;;5031907;28;20197;-46
2022/09/18 08:03:10;;;;;;;5.80;1.70;;;;;;;;;;5032381;28;20322;-45
2022/09/18 08:05:36;;;;;;;5.20;1.67;;;;;;;;;;5032506;28;20670;-46
2022/09/18 08:08:03;;;;;;;4.70;1.90;;;;;;;;;;5032027;28;20311;-45
2022/09/18 08:10:29;;;;;;;3.67;1.60;;;;;;;;;;5030313;28;20197;-46
2022/09/18 08:12:55;;;;;;;4.13;1.50;;;;;;;;;;5030267;28;20659;-45
2022/09/18 08:15:21;;;;;;;2.87;1.50;;;;;;;;;;5031860;28;20205;-46
2022/09/18 08:17:48;;;;;;;5.10;2.03;;;;;;;;;;5031914;28;20193;-45
2022/09/18 08:20:14;;;;;;;5.70;1.70;;;;;;;;;;5030760;28;20239;-46
2022/09/18 08:22:41;;;;;;;6.77;1.80;;;;;;;;;;5031956;28;20224;-46
2022/09/18 08:25:07;;;;;;;4.03;1.83;;;;;;;;;;5030991;28;20200;-46
2022/09/18 08:27:34;;;;;;;8.47;1.80;;;;;;;;;;5030589;28;20216;-46
2022/09/18 08:30:01;;;;;;;4.27;1.80;;;;;;;;;;5029545;28;20319;-46
2022/09/18 08:32:26;;;;;;;5.57;2.10;;;;;;;;;;5031658;28;20634;-46
2022/09/18 08:34:54;;;;;;;5.00;1.97;;;;;;;;;;5031651;28;20240;-46
2022/09/18 08:37:20;;;;;;;5.33;1.90;;;;;;;;;;5031878;28;20203;-46
2022/09/18 08:39:46;;;;;;;9.97;2.10;;;;;;;;;;5031477;28;20565;-46
2022/09/18 08:42:17;;;;;;;7.40;2.13;;;;;;;;;;5031473;28;20199;-46
2022/09/18 08:44:46;;;;;;;3.83;1.67;;;;;;;;;;5031688;28;20224;-46
2022/09/18 08:47:14;;;;;;;6.67;2.40;;;;;;;;;;5031260;28;20220;-45
2022/09/18 08:49:44;;;;;;;5.27;2.20;;;;;;;;;;5031859;28;20205;-46
2022/09/18 08:52:16;;;;;;;3.87;1.97;;;;;;;;;;5031200;28;20296;-46
2022/09/18 08:54:44;;;;;;;3.23;1.40;;;;;;;;;;5031457;28;20197;-46
2022/09/18 08:57:13;;;;;;;4.60;1.70;;;;;;;;;;5031105;28;20287;-46
2022/09/18 08:59:40;;;;;;;3.17;1.83;;;;;;;;;;5031252;28;20244;-46
2022/09/18 09:02:16;;;;;;;3.83;1.70;;;;;;;;;;5030958;28;20319;-50
2022/09/18 09:04:42;;;;;;;4.10;1.40;;;;;;;;;;5031300;28;20200;-47
2022/09/18 09:07:15;;;;;;;3.47;1.40;;;;;;;;;;5031006;28;20323;-46
2022/09/18 09:10:00;;;;;;;3.93;1.40;;;;;;;;;;5030951;28;20212;-46
2022/09/18 09:12:33;;;;;;;2.33;1.47;;;;;;;;;;5031170;28;20279;-46
2022/09/18 09:15:07;;;;;;;5.77;2.10;;;;;;;;;;5030818;28;20208;-46
2022/09/18 09:17:38;;;;;;;3.77;1.40;;;;;;;;;;5031366;28;20203;-46
2022/09/18 09:20:09;;;;;;;2.67;1.70;;;;;;;;;;5030619;28;20275;-46
2022/09/18 09:22:41;;;;;;;4.80;1.60;;;;;;;;;;5031406;28;20221;-46
2022/09/18 09:25:14;;;;;;;3.17;1.50;;;;;;;;;;5031248;28;20247;-46
2022/09/18 09:27:45;;;;;;;3.33;1.10;;;;;;;;;;5031066;28;20227;-47
2022/09/18 09:30:12;;;;;;;3.23;1.50;;;;;;;;;;5030835;28;20243;-46
2022/09/18 09:32:40;;;;;;;4.53;1.30;;;;;;;;;;5030969;28;20200;-46
2022/09/18 09:35:17;;;;;;;2.37;1.20;;;;;;;;;;5030314;28;20267;-46
2022/09/18 09:37:45;;;;;;;1.30;1.00;;;;;;;;;;5034539;28;20189;-46
2022/09/18 09:40:14;;;;;;;4.23;1.23;;;;;;;;;;5034900;28;20201;-46
2022/09/18 09:42:43;;;;;;;3.40;1.43;;;;;;;;;;5035283;28;20209;-46
2022/09/18 09:45:11;;;;;;;3.13;1.30;;;;;;;;;;5034826;28;20222;-47
2022/09/18 09:47:40;;;;;;;2.10;1.20;;;;;;;;;;5034595;28;20669;-47
2022/09/18 09:50:14;;;;;;;2.93;1.57;;;;;;;;;;5034411;28;20201;-46
2022/09/18 09:52:42;;;;;;;3.47;1.40;;;;;;;;;;5034815;28;20204;-46
2022/09/18 09:55:18;;;;;;;5.97;2.00;;;;;;;;;;5033690;28;20203;-45
2022/09/18 09:57:47;;;;;;;4.60;1.47;;;;;;;;;;5034417;28;20327;-45
2022/09/18 10:00:16;;;;;;;3.90;1.57;;;;;;;;;;5034489;28;20205;-45
2022/09/18 10:02:55;;;;;;;2.07;1.37;;;;;;;;;;5034369;28;20240;-45
2022/09/18 10:05:25;;;;;;;4.00;1.30;;;;;;;;;;5034757;28;20242;-45
2022/09/18 10:07:56;;;;;;;4.23;1.50;;;;;;;;;;5034415;28;20317;-45
2022/09/18 10:10:34;;;;;;;3.90;1.40;;;;;;;;;;5033716;28;20205;-45
2022/09/18 10:13:05;;;;;;;2.53;1.30;;;;;;;;;;5034086;28;20208;-45
2022/09/18 10:15:34;;;;;;;1.83;1.07;;;;;;;;;;5034112;28;20240;-46
2022/09/18 10:18:03;;;;;;;2.13;1.10;;;;;;;;;;5034213;28;20465;-46
2022/09/18 10:20:30;;;;;;;2.57;1.10;;;;;;;;;;5034317;28;20197;-46
2022/09/18 10:22:59;;;;;;;2.50;1.03;;;;;;;;;;5034162;28;20260;-45
2022/09/18 10:25:30;;;;;;;2.13;0.90;;;;;;;;;;5034288;28;20573;-45
2022/09/18 10:27:56;;;;;;;6.07;1.23;;;;;;;;;;5034253;28;20718;-47
2022/09/18 10:30:22;;;;;;;3.83;1.60;;;;;;;;;;5033815;28;20331;-45
2022/09/18 10:32:48;;;;;;;4.07;1.30;;;;;;;;;;5034232;28;20284;-45
2022/09/18 10:35:35;;;;;;;2.70;1.00;;;;;;;;;;5034208;28;20283;-45
2022/09/18 10:38:01;;;;;;;4.63;1.50;;;;;;;;;;5034148;28;20271;-45
2022/09/18 10:40:30;;;;;;;4.47;1.60;;;;;;;;;;5034099;28;20322;-45
2022/09/18 10:42:56;;;;;;;5.30;1.70;;;;;;;;;;5034008;28;20228;-45
2022/09/18 10:45:24;;;;;;;2.87;1.17;;;;;;;;;;5034033;28;20193;-45
2022/09/18 10:47:50;;;;;;;2.30;1.27;;;;;;;;;;5033009;28;20233;-44
2022/09/18 10:50:17;;;;;;;3.47;1.13;;;;;;;;;;5033829;28;20196;-45
2022/09/18 10:52:45;;;;;;;3.27;0.93;;;;;;;;;;5033879;28;20197;-45
2022/09/18 10:55:13;;;;;;;2.77;1.00;;;;;;;;;;5033497;28;20243;-45
2022/09/18 10:57:42;;;;;;;3.17;1.30;;;;;;;;;;5033916;28;20204;-45
2022/09/18 11:00:32;;;;;;;1.30;1.10;;;;;;;;;;5033421;28;20555;-45
2022/09/18 11:03:00;;;;;;;4.70;1.60;;;;;;;;;;5033857;28;20220;-45
2022/09/18 11:05:29;;;;;;;2.43;1.13;;;;;;;;;;5047316;28;20235;-46
2022/09/18 11:07:56;;;;;;;2.43;1.03;;;;;;;;;;5052479;28;20300;-46
2022/09/18 11:10:23;;;;;;;1.00;0.90;;;;;;;;;;5052764;28;20206;-45
2022/09/18 11:12:52;;;;;;;2.10;1.40;;;;;;;;;;5050129;28;20260;-46
2022/09/18 11:15:19;;;;;;;1.90;1.10;;;;;;;;;;5052472;28;20224;-47
2022/09/18 11:17:48;;;;;;;1.60;0.87;;;;;;;;;;5052397;28;20185;-46
2022/09/18 11:20:20;;;;;;;3.03;1.37;;;;;;;;;;5051980;28;20200;-46
2022/09/18 11:22:46;;;;;;;1.30;0.83;;;;;;;;;;5052555;28;20251;-45
2022/09/18 11:25:17;;;;;;;3.20;1.57;;;;;;;;;;5052263;28;20259;-46
2022/09/18 11:27:44;;;;;;;3.27;1.20;;;;;;;;;;5051842;28;20235;-46
2022/09/18 11:30:22;;;;;;;2.70;1.30;;;;;;;;;;5052239;28;20255;-46
2022/09/18 11:32:49;;;;;;;3.00;1.13;;;;;;;;;;5052099;28;20657;-46
2022/09/18 11:35:16;;;;;;;4.20;1.40;;;;;;;;;;5052103;28;20213;-46
2022/09/18 11:37:45;;;;;;;2.30;1.50;;;;;;;;;;5052099;28;20557;-46
2022/09/18 11:40:16;;;;;;;1.57;1.17;;;;;;;;;;5049634;28;20263;-46
2022/09/18 11:42:43;;;;;;;1.77;1.00;;;;;;;;;;5052367;28;20271;-46
2022/09/18 11:45:16;;;;;;;2.23;1.07;;;;;;;;;;5049235;28;20295;-47
2022/09/18 11:47:45;;;;;;;2.20;1.20;;;;;;;;;;5051895;28;20220;-46
2022/09/18 11:50:14;;;;;;;2.10;1.03;;;;;;;;;;5049545;28;20628;-46
2022/09/18 11:52:41;;;;;;;2.17;1.20;;;;;;;;;;5051795;28;20226;-45
2022/09/18 11:55:11;;;;;;;2.23;0.90;;;;;;;;;;5051679;28;20196;-45
2022/09/18 11:57:39;;;;;;;2.90;1.20;;;;;;;;;;5052709;28;20250;-45
2022/09/18 12:00:09;;;;;;;1.00;0.90;;;;;;;;;;5051825;28;20212;-45
2022/09/18 12:02:38;;;;;;;3.40;1.50;;;;;;;;;;5052425;28;20203;-46
2022/09/18 12:05:11;;;;;;;3.13;1.17;;;;;;;;;;5052266;28;20200;-46
2022/09/18 12:07:43;;;;;;;1.90;1.20;;;;;;;;;;5052178;28;20231;-47
2022/09/18 12:10:13;;;;;;;2.43;1.13;;;;;;;;;;5052129;28;20677;-46
2022/09/18 12:12:40;;;;;;;2.40;1.30;;;;;;;;;;5052357;28;20328;-47
2022/09/18 12:15:12;;;;;;;3.77;1.40;;;;;;;;;;5052655;28;20696;-46
2022/09/18 12:17:41;;;;;;;3.00;1.27;;;;;;;;;;5052148;28;20791;-55
2022/09/18 12:20:12;;;;;;;3.60;1.43;;;;;;;;;;5051811;28;20228;-57
2022/09/18 12:22:40;;;;;;;2.03;1.20;;;;;;;;;;5051982;28;20201;-56
2022/09/18 12:25:11;;;;;;;3.40;1.60;;;;;;;;;;5051991;28;20204;-57
2022/09/18 12:27:39;;;;;;;2.30;1.30;;;;;;;;;;5051049;28;20279;-57
2022/09/18 12:30:08;;;;;;;1.87;1.13;;;;;;;;;;5051818;28;20228;-56
2022/09/18 12:32:40;;;;;;;2.50;1.20;;;;;;;;;;5051498;28;20279;-56
2022/09/18 12:35:08;;;;;;;3.97;1.40;;;;;;;;;;5051590;28;20280;-55
2022/09/18 12:37:42;;;;;;;3.17;1.40;;;;;;;;;;5051658;28;20642;-53
2022/09/18 12:40:22;;;;;;;4.10;1.50;;;;;;;;;;5051772;28;20187;-58
2022/09/18 12:42:54;;;;;;;2.60;1.23;;;;;;;;;;5051860;28;20625;-48
2022/09/18 12:45:38;;;;;;;4.20;1.03;;;;;;;;;;5051691;28;20204;-48
2022/09/18 12:48:20;;;;;;;2.37;1.10;;;;;;;;;;5051075;28;20745;-48
2022/09/18 12:50:53;;;;;;;4.83;1.30;;;;;;;;;;5048208;28;20227;-48
2022/09/18 12:53:28;;;;;;;3.13;1.20;;;;;;;;;;5049596;28;20211;-47
2022/09/18 12:56:00;;;;;;;4.03;1.77;;;;;;;;;;5051281;28;20733;-48
2022/09/18 12:58:37;;;;;;;3.60;1.20;;;;;;;;;;5059588;28;20196;-48
2022/09/18 13:01:07;;;;;;;2.57;1.30;;;;;;;;;;5071314;28;20215;-48
2022/09/18 13:03:36;;;;;;;3.83;1.60;;;;;;;;;;5071480;28;20729;-48
2022/09/18 13:06:06;;;;;;;2.07;1.17;;;;;;;;;;5071095;28;20197;-47
2022/09/18 13:08:37;;;;;;;3.00;1.37;;;;;;;;;;5071261;28;20642;-47
2022/09/18 13:11:03;;;;;;;2.30;1.17;;;;;;;;;;5070675;28;20231;-47
2022/09/18 13:13:34;;;;;;;3.07;1.10;;;;;;;;;;5070980;28;20935;-47
2022/09/18 13:16:04;;;;;;;1.37;1.00;;;;;;;;;;5070948;28;20200;-47
2022/09/18 13:18:32;;;;;;;2.83;1.07;;;;;;;;;;5071145;28;20200;-47
2022/09/18 13:20:59;;;;;;;3.87;1.00;;;;;;;;;;5071253;28;20333;-47
2022/09/18 13:23:26;;;;;;;2.40;1.17;;;;;;;;;;5071254;28;20250;-47
2022/09/18 13:25:54;;;;;;;2.03;1.23;;;;;;;;;;5070796;28;20609;-48
2022/09/18 13:28:21;;;;;;;3.37;1.30;;;;;;;;;;5070841;28;20271;-47
2022/09/18 13:30:50;;;;;;;3.03;1.20;;;;;;;;;;5071008;28;20239;-47
2022/09/18 13:33:23;;;;;;;2.97;1.50;;;;;;;;;;5070967;28;20212;-47
2022/09/18 13:35:52;;;;;;;3.80;1.50;;;;;;;;;;5071220;28;20232;-48
2022/09/18 13:38:19;;;;;;;2.53;1.40;;;;;;;;;;5070731;28;20191;-48
2022/09/18 13:40:46;;;;;;;2.87;1.23;;;;;;;;;;5071132;28;20249;-47
2022/09/18 13:43:17;;;;;;;3.13;1.00;;;;;;;;;;5070314;28;20195;-48
2022/09/18 13:45:43;;;;;;;3.63;1.80;;;;;;;;;;5070831;28;20203;-47
2022/09/18 13:48:15;;;;;;;3.13;2.07;;;;;;;;;;5070687;28;20225;-48
2022/09/18 13:50:48;;;;;;;2.40;1.63;;;;;;;;;;5070667;28;20657;-48
2022/09/18 13:53:29;;;;;;;3.60;1.50;;;;;;;;;;5070763;28;20196;-46
2022/09/18 13:55:55;;;;;;;4.77;1.53;;;;;;;;;;5070890;28;20233;-48
2022/09/18 13:58:51;;;;;;;3.93;1.40;;;;;;;;;;5070888;28;20195;-48
2022/09/18 14:01:50;;;;;;;4.97;1.90;;;;;;;;;;4989364;28;20206;-48
2022/09/18 14:04:35;;;;;;;4.03;1.53;;;;;;;;;;5007354;28;20241;-48
2022/09/18 14:07:02;;;;;;;8.23;1.43;;;;;;;;;;5008705;28;20237;-47
2022/09/18 14:09:43;;;;;;;2.33;1.40;;;;;;;;;;5043649;28;20224;-47
2022/09/18 14:12:13;;;;;;;3.40;1.50;;;;;;;;;;5070720;28;20286;-47
2022/09/18 14:14:39;;;;;;;1.93;1.27;;;;;;;;;;5070212;28;20203;-47
2022/09/18 14:17:10;;;;;;;2.70;1.60;;;;;;;;;;5070527;28;20290;-47
2022/09/18 14:19:39;;;;;;;2.63;1.50;;;;;;;;;;5070760;28;20565;-47
2022/09/18 14:22:21;;;;;;;2.03;1.10;;;;;;;;;;5070524;28;20195;-47
2022/09/18 14:24:55;;;;;;;2.83;1.20;;;;;;;;;;5073737;28;20207;-47
2022/09/18 14:27:38;;;;;;;3.67;1.67;;;;;;;;;;5073923;28;20220;-47
2022/09/18 14:30:11;;;;;;;3.50;1.53;;;;;;;;;;5073824;28;20806;-46
2022/09/18 14:32:38;;;;;;;2.63;1.47;;;;;;;;;;5069747;28;20670;-47
2022/09/18 14:35:21;;;;;;;3.23;1.23;;;;;;;;;;5073742;28;20199;-47
2022/09/18 14:37:49;;;;;;;3.83;1.50;;;;;;;;;;5074064;28;20322;-47
2022/09/18 14:40:19;;;;;;;3.70;1.57;;;;;;;;;;5073894;28;20211;-48
2022/09/18 14:42:45;;;;;;;3.17;1.50;;;;;;;;;;5073654;28;20203;-47
2022/09/18 14:45:19;;;;;;;2.63;1.13;;;;;;;;;;5073935;28;20195;-47
2022/09/18 14:47:47;;;;;;;3.47;1.50;;;;;;;;;;5073443;28;20224;-47
2022/09/18 14:50:27;;;;;;;6.17;1.97;;;;;;;;;;5073712;28;20303;-47
2022/09/18 14:52:55;;;;;;;3.70;1.60;;;;;;;;;;5073970;28;20199;-47